createdAt,value
2023-02-20T00:02:02.124Z,99649.53
2023-02-20T00:04:32.442Z,99657.98
2023-02-20T00:07:02.106Z,99650.89
2023-02-20T00:09:32.165Z,99659.64
2023-02-20T00:12:01.338Z,99651.86
2023-02-20T00:14:32.131Z,99654.36
2023-02-20T00:17:01.015Z,99656.38
2023-02-20T00:19:30.843Z,99665.47
2023-02-20T00:22:01.120Z,99668.16
2023-02-20T00:24:31.671Z,99661.08
2023-02-20T00:27:01.488Z,99654.98
2023-02-20T00:29:34.099Z,99659.53
2023-02-20T00:32:02.805Z,99661.54
2023-02-20T00:34:34.791Z,99656.99
2023-02-20T00:37:04.978Z,99651.75
2023-02-20T00:39:34.566Z,99645.48
2023-02-20T00:42:04.079Z,99649.64
2023-02-20T00:44:34.506Z,99660.59
2023-02-20T00:47:03.920Z,99653.50
2023-02-20T00:49:34.252Z,99649.45
2023-02-20T00:52:14.895Z,99651.45
2023-02-20T00:54:44.815Z,99652.45
2023-02-20T00:57:13.884Z,99651.42
2023-02-20T00:59:42.650Z,99644.33
2023-02-20T01:02:14.198Z,99646.18
2023-02-20T01:04:42.763Z,99648.53
2023-02-20T01:07:11.778Z,99648.84
2023-02-20T01:09:41.078Z,99645.80
2023-02-20T01:12:11.908Z,99648.14
2023-02-20T01:14:43.614Z,99654.04
2023-02-20T01:17:14.672Z,99650.99
2023-02-20T01:19:44.585Z,99652.50
2023-02-20T01:22:13.196Z,99653.16
2023-02-20T01:24:44.626Z,99654.00
2023-02-20T01:27:15.361Z,99644.56
2023-02-20T01:29:43.980Z,99652.15
2023-02-20T01:32:13.243Z,99644.72
2023-02-20T01:34:43.411Z,99658.50
2023-02-20T01:37:14.581Z,99646.52
2023-02-20T01:39:47.141Z,99652.22
2023-02-20T01:42:23.365Z,99647.11
2023-02-20T01:44:53.924Z,99649.95
2023-02-20T01:47:23.529Z,99653.15
2023-02-20T01:49:59.589Z,99647.76
2023-02-20T01:52:31.740Z,99651.30
2023-02-20T01:55:13.667Z,99664.73
2023-02-20T01:57:52.918Z,99660.50
2023-02-20T02:00:24.266Z,99660.84
2023-02-20T02:03:07.806Z,99659.64
2023-02-20T02:05:39.572Z,99666.53
2023-02-20T02:08:09.586Z,99664.89
2023-02-20T02:11:04.592Z,99669.43
2023-02-20T02:13:38.517Z,99661.64
2023-02-20T02:16:39.825Z,99657.41
2023-02-20T02:19:58.676Z,99651.32
2023-02-20T02:23:15.336Z,99665.99
2023-02-20T02:25:57.908Z,99657.67
2023-02-20T02:29:06.193Z,99668.90
2023-02-20T02:32:02.149Z,99647.69
2023-02-20T02:34:59.366Z,99665.70
2023-02-20T02:37:55.406Z,99659.77
2023-02-20T02:40:31.448Z,99665.81
2023-02-20T02:43:23.800Z,99664.91
2023-02-20T02:45:57.450Z,99669.45
2023-02-20T02:48:42.201Z,99666.91
2023-02-20T02:51:16.297Z,99672.95
2023-02-20T02:54:09.042Z,99674.14
2023-02-20T02:56:45.153Z,99668.20
2023-02-20T02:59:24.935Z,99666.16
2023-02-20T03:01:59.789Z,99667.16
2023-02-20T03:04:28.754Z,99664.62
2023-02-20T03:07:11.505Z,99666.61
2023-02-20T03:09:51.494Z,99659.88
2023-02-20T03:12:20.171Z,99663.56
2023-02-20T03:15:25.235Z,99661.38
2023-02-20T03:18:39.005Z,99663.06
2023-02-20T03:21:14.042Z,99657.48
2023-02-20T03:23:46.410Z,99666.41
2023-02-20T03:26:19.272Z,99663.02
2023-02-20T03:29:00.331Z,99659.13
2023-02-20T03:31:36.854Z,99662.97
2023-02-20T03:34:32.408Z,99667.36
2023-02-20T03:37:27.358Z,99668.50
2023-02-20T03:40:18.086Z,99670.84
2023-02-20T03:43:08.053Z,99663.83
2023-02-20T03:45:40.170Z,99668.71
2023-02-20T03:48:27.346Z,99676.68
2023-02-20T03:50:56.319Z,99668.45
2023-02-20T03:53:25.808Z,99667.95
2023-02-20T03:55:55.661Z,99662.36
2023-02-20T03:58:25.206Z,99667.52
2023-02-20T04:00:54.411Z,99668.52
2023-02-20T04:03:26.808Z,99657.74
2023-02-20T04:05:57.122Z,99658.03
2023-02-20T04:08:38.379Z,99656.34
2023-02-20T04:11:26.957Z,99659.03
2023-02-20T04:13:57.173Z,99661.38
2023-02-20T04:16:26.409Z,99652.30
2023-02-20T04:18:55.700Z,99640.53
2023-02-20T04:21:36.421Z,99649.41
2023-02-20T04:24:12.802Z,99643.13
2023-02-20T04:26:41.924Z,99654.13
2023-02-20T04:29:11.992Z,99654.13
2023-02-20T04:31:40.816Z,99649.59
2023-02-20T04:34:09.569Z,99650.94
2023-02-20T04:36:39.236Z,99648.05
2023-02-20T04:39:08.053Z,99639.27
2023-02-20T04:41:37.675Z,99652.03
2023-02-20T04:44:24.600Z,99645.30
2023-02-20T04:46:53.284Z,99651.39
2023-02-20T04:49:22.493Z,99651.39
2023-02-20T04:51:53.643Z,99645.01
2023-02-20T04:54:22.863Z,99648.34
2023-02-20T04:56:53.363Z,99641.77
2023-02-20T04:59:22.115Z,99641.91
2023-02-20T05:01:51.748Z,99645.80
2023-02-20T05:04:20.573Z,99641.77
2023-02-20T05:06:53.586Z,99643.11
2023-02-20T05:09:22.306Z,99649.69
2023-02-20T05:11:51.056Z,99656.06
2023-02-20T05:14:21.140Z,99664.64
2023-02-20T05:16:51.149Z,99656.22
2023-02-20T05:19:19.672Z,99661.10
2023-02-20T05:22:08.642Z,99657.06
2023-02-20T05:24:37.521Z,99680.44
2023-02-20T05:27:06.282Z,99669.03
2023-02-20T05:29:36.622Z,99676.25
2023-02-20T05:32:05.828Z,99671.52
2023-02-20T05:34:37.448Z,99670.81
2023-02-20T05:37:06.235Z,99683.92
2023-02-20T05:39:34.886Z,99676.05
2023-02-20T05:42:05.527Z,99681.93
2023-02-20T05:44:34.746Z,99682.42
2023-02-20T05:47:04.453Z,99677.55
2023-02-20T05:49:35.212Z,99674.56
2023-02-20T05:52:06.730Z,99680.35
2023-02-20T05:54:37.120Z,99681.41
2023-02-20T05:57:05.987Z,99683.45
2023-02-20T05:59:34.784Z,99678.91
2023-02-20T06:02:03.704Z,99676.22
2023-02-20T06:04:32.637Z,99689.19
2023-02-20T06:07:01.782Z,99684.16
2023-02-20T06:09:30.728Z,99672.89
2023-02-20T06:12:00.993Z,99676.77
2023-02-20T06:14:30.469Z,99671.73
2023-02-20T06:16:59.545Z,99672.23
2023-02-20T06:19:30.156Z,99684.06
2023-02-20T06:21:59.313Z,99692.34
2023-02-20T06:24:29.188Z,99664.42
2023-02-20T06:26:57.855Z,99679.08
2023-02-20T06:29:28.857Z,99695.94
2023-02-20T06:31:59.946Z,99708.14
2023-02-20T06:34:33.280Z,99692.54
2023-02-20T06:37:02.774Z,99682.81
2023-02-20T06:39:33.133Z,99706.76
2023-02-20T06:42:02.420Z,99685.22
2023-02-20T06:44:33.173Z,99691.80
2023-02-20T06:47:04.897Z,99689.30
2023-02-20T06:49:33.808Z,99685.17
2023-02-20T06:52:04.361Z,99697.48
2023-02-20T06:54:34.213Z,99690.80
2023-02-20T06:57:04.017Z,99692.70
2023-02-20T06:59:35.383Z,99690.36
2023-02-20T07:02:05.828Z,99694.95
2023-02-20T07:04:34.703Z,99694.99
2023-02-20T07:07:04.495Z,99688.95
2023-02-20T07:09:33.397Z,99699.78
2023-02-20T07:12:04.539Z,99698.48
2023-02-20T07:14:33.848Z,99707.62
2023-02-20T07:17:02.850Z,99707.02
2023-02-20T07:19:32.202Z,99707.70
2023-02-20T07:22:01.160Z,99709.10
2023-02-20T07:24:31.953Z,99709.68
2023-02-20T07:27:02.502Z,99722.31
2023-02-20T07:29:32.243Z,99702.09
2023-02-20T07:32:01.659Z,99707.53
2023-02-20T07:34:31.997Z,99699.78
2023-02-20T07:37:01.308Z,99707.07
2023-02-20T07:39:32.500Z,99709.81
2023-02-20T07:42:02.576Z,99712.90
2023-02-20T07:44:36.126Z,99721.23
2023-02-20T07:47:05.374Z,99701.73
2023-02-20T07:49:36.160Z,99698.38
2023-02-20T07:52:05.794Z,99712.72
2023-02-20T07:54:37.578Z,99705.81
2023-02-20T07:57:06.710Z,99705.52
2023-02-20T07:59:35.758Z,99695.92
2023-02-20T08:02:04.627Z,99700.00
2023-02-20T08:04:33.764Z,99689.13
2023-02-20T08:07:02.511Z,99682.64
2023-02-20T08:09:31.164Z,99680.63
2023-02-20T08:11:59.995Z,99691.00
2023-02-20T08:14:31.176Z,99676.61
2023-02-20T08:16:59.928Z,99690.72
2023-02-20T08:19:28.954Z,99695.96
2023-02-20T08:21:58.807Z,99676.47
2023-02-20T08:24:27.999Z,99682.22
2023-02-20T08:26:59.144Z,99666.03
2023-02-20T08:29:30.046Z,99668.17
2023-02-20T08:32:00.926Z,99666.23
2023-02-20T08:34:30.910Z,99662.81
2023-02-20T08:37:02.654Z,99687.94
2023-02-20T08:39:33.504Z,99671.84
2023-02-20T08:42:02.480Z,99681.17
2023-02-20T08:44:31.456Z,99679.45
2023-02-20T08:47:00.460Z,99675.53
2023-02-20T08:49:30.163Z,99690.97
2023-02-20T08:52:00.658Z,99684.00
2023-02-20T08:54:29.757Z,99699.62
2023-02-20T08:56:58.623Z,99681.87
2023-02-20T08:59:32.521Z,99673.15
2023-02-20T09:02:01.158Z,99677.78
2023-02-20T09:04:31.116Z,99669.84
2023-02-20T09:06:59.805Z,99670.52
2023-02-20T09:09:30.972Z,99677.99
2023-02-20T09:12:02.151Z,99672.59
2023-02-20T09:14:32.366Z,99685.13
2023-02-20T09:17:02.786Z,99704.77
2023-02-20T09:19:31.609Z,99666.02
2023-02-20T09:22:00.637Z,99673.25
2023-02-20T09:24:31.203Z,99669.88
2023-02-20T09:27:22.441Z,99663.27
2023-02-20T09:29:51.565Z,99664.83
2023-02-20T09:32:21.520Z,99657.72
2023-02-20T09:34:50.300Z,99654.00
2023-02-20T09:37:19.809Z,99658.39
2023-02-20T09:39:50.053Z,99661.44
2023-02-20T09:42:36.072Z,99657.03
2023-02-20T09:45:16.675Z,99651.29
2023-02-20T09:48:12.567Z,99653.49
2023-02-20T09:50:46.633Z,99647.40
2023-02-20T09:53:41.477Z,99649.94
2023-02-20T09:56:18.658Z,99643.50
2023-02-20T09:59:00.392Z,99647.23
2023-02-20T10:01:29.378Z,99647.39
2023-02-20T10:04:17.484Z,99634.53
2023-02-20T10:06:48.185Z,99630.80
2023-02-20T10:09:17.715Z,99619.28
2023-02-20T10:12:04.691Z,99616.22
2023-02-20T10:14:53.817Z,99618.92
2023-02-20T10:17:32.637Z,99622.47
2023-02-20T10:20:21.448Z,99628.58
2023-02-20T10:23:24.572Z,99607.42
2023-02-20T10:25:56.576Z,99618.78
2023-02-20T10:28:25.507Z,99617.77
2023-02-20T10:31:24.142Z,99619.29
2023-02-20T10:34:12.134Z,99604.72
2023-02-20T10:36:51.361Z,99603.20
2023-02-20T10:39:21.914Z,99597.78
2023-02-20T10:41:59.739Z,99592.70
2023-02-20T10:44:54.745Z,99565.95
2023-02-20T10:47:48.393Z,99561.72
2023-02-20T10:50:43.814Z,99570.33
2023-02-20T10:53:41.331Z,99569.61
2023-02-20T10:56:38.490Z,99577.73
2023-02-20T10:59:27.726Z,99545.21
2023-02-20T11:01:58.581Z,99551.30
2023-02-20T11:04:34.980Z,99543.86
2023-02-20T11:07:22.592Z,99547.55
2023-02-20T11:09:51.428Z,99549.38
2023-02-20T11:12:35.358Z,99548.86
2023-02-20T11:15:17.323Z,99542.25
2023-02-20T11:17:47.264Z,99549.84
2023-02-20T11:20:38.516Z,99552.87
2023-02-20T11:23:07.313Z,99547.11
2023-02-20T11:25:46.738Z,99549.70
2023-02-20T11:28:25.609Z,99538.58
2023-02-20T11:31:06.626Z,99548.43
2023-02-20T11:33:37.484Z,99539.11
2023-02-20T11:36:23.057Z,99545.56
2023-02-20T11:39:02.894Z,99548.95
2023-02-20T11:41:35.665Z,99546.09
2023-02-20T11:44:23.512Z,99538.47
2023-02-20T11:47:24.251Z,99543.54
2023-02-20T11:50:19.240Z,99541.16
2023-02-20T11:53:05.088Z,99548.63
2023-02-20T11:55:35.796Z,99541.87
2023-02-20T11:58:04.568Z,99529.69
2023-02-20T12:00:48.869Z,99546.95
2023-02-20T12:03:28.194Z,99524.91
2023-02-20T12:05:57.544Z,99537.42
2023-02-20T12:09:02.114Z,99527.27
2023-02-20T12:11:32.034Z,99528.97
2023-02-20T12:14:03.283Z,99534.76
2023-02-20T12:16:55.420Z,99537.82
2023-02-20T12:19:53.455Z,99528.17
2023-02-20T12:22:33.862Z,99523.61
2023-02-20T12:25:22.280Z,99521.39
2023-02-20T12:28:15.168Z,99516.97
2023-02-20T12:31:07.866Z,99518.84
2023-02-20T12:33:58.397Z,99519.52
2023-02-20T12:36:52.448Z,99517.16
2023-02-20T12:39:53.444Z,99517.33
2023-02-20T12:42:44.809Z,99519.34
2023-02-20T12:45:30.983Z,99507.49
2023-02-20T12:48:29.640Z,99509.36
2023-02-20T12:51:13.062Z,99500.88
2023-02-20T12:53:49.868Z,99501.03
2023-02-20T12:56:59.380Z,99497.64
2023-02-20T12:59:48.844Z,99505.94
2023-02-20T13:02:41.702Z,99515.95
2023-02-20T13:05:07.412Z,99505.82
2023-02-20T13:07:58.131Z,99518.53
2023-02-20T13:10:32.389Z,99514.98
2023-02-20T13:13:01.870Z,99504.33
2023-02-20T13:16:05.284Z,99503.97
2023-02-20T13:18:47.904Z,99493.14
2023-02-20T13:21:25.541Z,99498.89
2023-02-20T13:24:23.550Z,99486.53
2023-02-20T13:26:57.926Z,99490.41
2023-02-20T13:29:29.314Z,99482.63
2023-02-20T13:32:04.145Z,99463.17
2023-02-20T13:34:36.796Z,99469.09
2023-02-20T13:37:07.986Z,99463.34
2023-02-20T13:39:40.287Z,99476.89
2023-02-20T13:42:30.415Z,99466.73
2023-02-20T13:44:59.717Z,99461.16
2023-02-20T13:47:35.928Z,99451.52
2023-02-20T13:50:27.944Z,99465.75
2023-02-20T13:52:59.944Z,99458.98
2023-02-20T13:55:30.641Z,99449.50
2023-02-20T13:58:07.961Z,99441.89
2023-02-20T14:00:55.530Z,99442.73
2023-02-20T14:03:32.032Z,99431.90
2023-02-20T14:06:05.074Z,99432.75
2023-02-20T14:08:35.660Z,99422.09
2023-02-20T14:11:14.690Z,99418.03
2023-02-20T14:13:46.750Z,99427.84
2023-02-20T14:16:31.743Z,99422.42
2023-02-20T14:19:03.531Z,99412.44
2023-02-20T14:21:34.291Z,99428.69
2023-02-20T14:24:25.641Z,99422.76
2023-02-20T14:27:00.538Z,99413.45
2023-02-20T14:29:33.936Z,99401.27
2023-02-20T14:32:03.942Z,99406.69
2023-02-20T14:35:02.680Z,99403.64
2023-02-20T14:38:09.570Z,99398.41
2023-02-20T14:40:41.410Z,99399.09
2023-02-20T14:43:23.092Z,99398.76
2023-02-20T14:46:02.712Z,99408.92
2023-02-20T14:48:37.446Z,99401.16
2023-02-20T14:51:18.576Z,99398.29
2023-02-20T14:53:47.228Z,99393.41
2023-02-20T14:56:17.850Z,99376.00
2023-02-20T14:58:47.288Z,99377.02
2023-02-20T15:01:37.079Z,99368.23
2023-02-20T15:04:12.912Z,99361.63
2023-02-20T15:06:44.066Z,99359.44
2023-02-20T15:09:22.547Z,99349.47
2023-02-20T15:11:58.159Z,99349.83
2023-02-20T15:14:28.547Z,99342.39
2023-02-20T15:17:16.890Z,99336.64
2023-02-20T15:19:47.267Z,99338.69
2023-02-20T15:22:36.028Z,99327.03
2023-02-20T15:25:29.374Z,99323.66
2023-02-20T15:28:23.030Z,99329.23
2023-02-20T15:31:16.812Z,99317.23
2023-02-20T15:33:53.222Z,99319.44
2023-02-20T15:36:24.695Z,99315.23
2023-02-20T15:38:55.504Z,99303.56
2023-02-20T15:41:24.787Z,99297.48
2023-02-20T15:43:54.590Z,99299.17
2023-02-20T15:46:24.559Z,99286.33
2023-02-20T15:48:55.562Z,99283.95
2023-02-20T15:51:26.148Z,99267.39
2023-02-20T15:53:56.386Z,99268.41
2023-02-20T15:56:32.228Z,99269.43
2023-02-20T15:59:06.525Z,99263.00
2023-02-20T16:01:35.611Z,99267.06
2023-02-20T16:04:06.026Z,99267.06
2023-02-20T16:06:35.829Z,99265.70
2023-02-20T16:09:07.799Z,99272.80
2023-02-20T16:11:46.102Z,99265.20
2023-02-20T16:14:16.739Z,99269.25
2023-02-20T16:16:48.282Z,99269.59
2023-02-20T16:19:28.085Z,99265.20
2023-02-20T16:21:59.658Z,99253.20
2023-02-20T16:24:28.007Z,99264.86
2023-02-20T16:26:57.163Z,99253.55
2023-02-20T16:29:32.685Z,99245.77
2023-02-20T16:32:16.552Z,99247.63
2023-02-20T16:34:46.091Z,99239.36
2023-02-20T16:37:15.325Z,99237.02
2023-02-20T16:39:44.594Z,99234.15
2023-02-20T16:42:29.029Z,99221.47
2023-02-20T16:44:58.682Z,99209.98
2023-02-20T16:47:33.874Z,99209.16
2023-02-20T16:50:05.580Z,99208.67
2023-02-20T16:52:37.330Z,99199.89
2023-02-20T16:55:26.200Z,99197.19
2023-02-20T16:57:55.758Z,99193.64
2023-02-20T17:00:36.965Z,99192.49
2023-02-20T17:03:07.173Z,99178.99
2023-02-20T17:05:37.578Z,99178.66
2023-02-20T17:08:08.633Z,99184.05
2023-02-20T17:10:37.443Z,99179.84
2023-02-20T17:13:06.552Z,99173.25
2023-02-20T17:15:37.571Z,99162.42
2023-02-20T17:18:08.249Z,99156.20
2023-02-20T17:20:38.817Z,99159.94
2023-02-20T17:23:08.028Z,99155.75
2023-02-20T17:25:37.999Z,99147.66
2023-02-20T17:28:08.340Z,99145.64
2023-02-20T17:30:41.149Z,99143.31
2023-02-20T17:33:10.012Z,99145.02
2023-02-20T17:35:40.352Z,99129.16
2023-02-20T17:38:09.322Z,99120.73
2023-02-20T17:40:40.106Z,99114.33
2023-02-20T17:43:08.799Z,99110.45
2023-02-20T17:45:37.507Z,99096.94
2023-02-20T17:48:08.015Z,99088.33
2023-02-20T17:50:36.766Z,99076.02
2023-02-20T17:53:07.821Z,99064.72
2023-02-20T17:55:36.643Z,99072.33
2023-02-20T17:58:05.329Z,99066.44
2023-02-20T18:00:36.024Z,99063.91
2023-02-20T18:03:04.893Z,99057.67
2023-02-20T18:05:33.570Z,99049.56
2023-02-20T18:08:02.376Z,99045.19
2023-02-20T18:10:33.523Z,99032.33
2023-02-20T18:13:03.964Z,99019.84
2023-02-20T18:15:35.542Z,99012.09
2023-02-20T18:18:06.098Z,98998.11
2023-02-20T18:20:37.698Z,98978.88
2023-02-20T18:23:07.774Z,98971.79
2023-02-20T18:25:40.922Z,98964.20
2023-02-20T18:28:07.740Z,98954.09
2023-02-20T18:30:37.112Z,98936.55
2023-02-20T18:33:06.079Z,98931.84
2023-02-20T18:35:37.143Z,98924.08
2023-02-20T18:38:06.036Z,98916.66
2023-02-20T18:40:35.827Z,98904.84
2023-02-20T18:43:07.484Z,98896.08
2023-02-20T18:45:36.354Z,98890.53
2023-02-20T18:48:06.620Z,98888.34
2023-02-20T18:50:35.320Z,98876.19
2023-02-20T18:53:05.719Z,98860.35
2023-02-20T18:55:34.660Z,98854.62
2023-02-20T18:58:03.459Z,98839.11
2023-02-20T19:00:34.739Z,98834.73
2023-02-20T19:03:06.414Z,98832.37
2023-02-20T19:05:35.466Z,98819.71
2023-02-20T19:08:04.818Z,98801.33
2023-02-20T19:10:34.831Z,98786.33
2023-02-20T19:13:04.166Z,98781.77
2023-02-20T19:15:37.516Z,98763.89
2023-02-20T19:18:07.491Z,98754.45
2023-02-20T19:20:36.180Z,98745.19
2023-02-20T19:23:05.341Z,98730.70
2023-02-20T19:25:37.755Z,98724.14
2023-02-20T19:28:06.798Z,98703.38
2023-02-20T19:30:35.753Z,98688.72
2023-02-20T19:33:04.986Z,98688.06
2023-02-20T19:35:33.824Z,98678.95
2023-02-20T19:38:03.680Z,98668.66
2023-02-20T19:40:32.893Z,98670.38
2023-02-20T19:43:03.038Z,98680.66
2023-02-20T19:45:32.640Z,98673.22
2023-02-20T19:48:02.207Z,98631.58
2023-02-20T19:50:31.066Z,98585.89
2023-02-20T19:53:00.262Z,98686.42
2023-02-20T19:55:29.037Z,98681.57
2023-02-20T19:57:58.313Z,98606.39
2023-02-20T20:00:29.574Z,98582.95
2023-02-20T20:02:58.262Z,98633.04
2023-02-20T20:05:28.261Z,98592.75
2023-02-20T20:07:56.876Z,98562.42
2023-02-20T20:10:29.252Z,98599.86
2023-02-20T20:12:58.285Z,98575.91
2023-02-20T20:15:28.424Z,98566.61
2023-02-20T20:18:01.973Z,98556.66
2023-02-20T20:20:32.070Z,98551.73
2023-02-20T20:23:02.648Z,98546.48
2023-02-20T20:25:31.518Z,98519.96
2023-02-20T20:28:01.761Z,98519.40
2023-02-20T20:30:37.826Z,98505.86
2023-02-20T20:33:07.553Z,98501.95
2023-02-20T20:35:36.776Z,98476.26
2023-02-20T20:38:07.876Z,98471.00
2023-02-20T20:40:36.781Z,98475.38
2023-02-20T20:43:07.954Z,98472.30
2023-02-20T20:45:36.828Z,98452.05
2023-02-20T20:48:06.148Z,98472.11
2023-02-20T20:50:35.873Z,98456.88
2023-02-20T20:53:06.083Z,98439.85
2023-02-20T20:55:34.936Z,98438.17
2023-02-20T20:58:03.878Z,98434.97
2023-02-20T21:00:33.980Z,98416.26
2023-02-20T21:03:05.254Z,98402.12
2023-02-20T21:05:34.076Z,98409.38
2023-02-20T21:08:09.145Z,98411.56
2023-02-20T21:10:38.062Z,98405.14
2023-02-20T21:13:06.954Z,98414.72
2023-02-20T21:15:35.865Z,98391.32
2023-02-20T21:18:05.857Z,98386.49
2023-02-20T21:20:36.368Z,98379.55
2023-02-20T21:23:06.128Z,98376.34
2023-02-20T21:25:37.964Z,98381.42
2023-02-20T21:28:06.930Z,98369.27
2023-02-20T21:30:35.666Z,98365.87
2023-02-20T21:33:04.389Z,98366.70
2023-02-20T21:35:33.361Z,98355.02
2023-02-20T21:38:02.308Z,98350.58
2023-02-20T21:40:30.965Z,98342.61
2023-02-20T21:43:19.457Z,98340.88
2023-02-20T21:45:50.326Z,98333.23
2023-02-20T21:48:19.343Z,98331.62
2023-02-20T21:50:51.111Z,98320.75
2023-02-20T21:53:20.847Z,98307.02
2023-02-20T21:55:49.793Z,98307.14
2023-02-20T21:58:18.741Z,98284.13
2023-02-20T22:00:47.557Z,98285.79
2023-02-20T22:03:17.182Z,98286.11
2023-02-20T22:05:46.330Z,98275.95
2023-02-20T22:08:34.297Z,98270.86
2023-02-20T22:11:22.206Z,98254.66
2023-02-20T22:14:09.629Z,98257.48
2023-02-20T22:16:59.114Z,98255.42
2023-02-20T22:19:46.950Z,98242.23
2023-02-20T22:22:33.991Z,98244.61
2023-02-20T22:25:21.317Z,98235.16
2023-02-20T22:28:09.430Z,98217.60
2023-02-20T22:30:56.997Z,98226.54
2023-02-20T22:33:44.472Z,98225.83
2023-02-20T22:36:31.608Z,98221.77
2023-02-20T22:39:19.613Z,98218.44
2023-02-20T22:42:07.087Z,98221.14
2023-02-20T22:44:54.929Z,98222.48
2023-02-20T22:47:42.570Z,98212.32
2023-02-20T22:50:31.389Z,98201.95
2023-02-20T22:53:19.981Z,98212.24
2023-02-20T22:56:07.952Z,98196.03
2023-02-20T22:58:55.062Z,98187.22
2023-02-20T23:01:43.004Z,98183.80
2023-02-20T23:04:30.397Z,98186.09
2023-02-20T23:07:18.069Z,98190.79
2023-02-20T23:10:04.887Z,98184.98
2023-02-20T23:12:52.227Z,98176.16
2023-02-20T23:15:40.157Z,98161.42
2023-02-20T23:18:28.383Z,98161.13
2023-02-20T23:21:16.045Z,98159.06
2023-02-20T23:24:03.940Z,98148.17
2023-02-20T23:26:51.468Z,98143.70
2023-02-20T23:29:38.898Z,98141.75
2023-02-20T23:32:26.779Z,98152.70
2023-02-20T23:35:15.415Z,98142.53
2023-02-20T23:38:03.877Z,98154.09
2023-02-20T23:40:52.977Z,98160.75
2023-02-20T23:43:40.425Z,98141.42
2023-02-20T23:46:27.632Z,98128.33
2023-02-20T23:49:16.469Z,98133.96
2023-02-20T23:52:14.811Z,98158.20
2023-02-20T23:54:54.030Z,98148.64
2023-02-20T23:57:44.385Z,98142.31
